createdAt,value
2023-03-20T00:00:31.754Z,10.80
2023-03-20T00:02:58.216Z,10.10
2023-03-20T00:05:26.233Z,10.88
2023-03-20T00:07:53.141Z,9.70
2023-03-20T00:10:20.936Z,11.10
2023-03-20T00:12:49.841Z,10.75
2023-03-20T00:15:36.580Z,11.45
2023-03-20T00:18:04.164Z,10.75
2023-03-20T00:20:31.751Z,10.50
2023-03-20T00:22:58.263Z,11.25
2023-03-20T00:25:26.943Z,10.30
2023-03-20T00:27:53.448Z,11.13
2023-03-20T00:30:29.474Z,10.95
2023-03-20T00:32:57.984Z,9.60
2023-03-20T00:35:28.494Z,9.65
2023-03-20T00:37:57.566Z,8.68
2023-03-20T00:40:30.120Z,9.38
2023-03-20T00:43:01.131Z,8.52
2023-03-20T00:45:31.496Z,8.10
2023-03-20T00:47:58.555Z,8.25
2023-03-20T00:50:30.454Z,8.00
2023-03-20T00:52:59.293Z,7.82
2023-03-20T00:55:29.347Z,8.15
2023-03-20T00:58:02.566Z,8.73
2023-03-20T01:00:31.680Z,8.65
2023-03-20T01:02:58.873Z,8.05
2023-03-20T01:05:27.426Z,8.48
2023-03-20T01:07:54.916Z,8.38
2023-03-20T01:10:25.965Z,8.13
2023-03-20T01:12:52.441Z,7.72
2023-03-20T01:15:22.832Z,8.25
2023-03-20T01:17:49.771Z,8.10
2023-03-20T01:20:30.924Z,8.73
2023-03-20T01:22:57.428Z,7.40
2023-03-20T01:25:23.918Z,7.38
2023-03-20T01:27:52.786Z,6.97
2023-03-20T01:30:25.087Z,7.47
2023-03-20T01:32:51.870Z,6.97
2023-03-20T01:35:22.806Z,6.90
2023-03-20T01:37:50.897Z,6.63
2023-03-20T01:40:41.013Z,7.03
2023-03-20T01:43:18.433Z,6.65
2023-03-20T01:46:01.478Z,5.90
2023-03-20T01:48:50.580Z,6.60
2023-03-20T01:51:20.825Z,6.75
2023-03-20T01:53:51.724Z,7.25
2023-03-20T01:56:20.108Z,6.78
2023-03-20T01:58:58.708Z,7.25
2023-03-20T02:01:27.661Z,6.93
2023-03-20T02:03:55.734Z,7.57
2023-03-20T02:06:45.080Z,6.72
2023-03-20T02:09:17.852Z,7.60
2023-03-20T02:11:47.056Z,6.72
2023-03-20T02:14:15.822Z,7.10
2023-03-20T02:16:54.026Z,7.18
2023-03-20T02:19:45.560Z,6.82
2023-03-20T02:22:24.403Z,6.80
2023-03-20T02:25:15.476Z,6.82
2023-03-20T02:28:01.556Z,8.00
2023-03-20T02:30:43.097Z,6.85
2023-03-20T02:33:51.034Z,7.45
2023-03-20T02:36:43.001Z,6.78
2023-03-20T02:39:31.657Z,7.28
2023-03-20T02:42:16.792Z,7.40
2023-03-20T02:44:58.390Z,7.65
2023-03-20T02:48:08.436Z,7.47
2023-03-20T02:50:46.072Z,8.18
2023-03-20T02:53:39.003Z,7.82
2023-03-20T02:56:42.148Z,7.43
2023-03-20T02:59:41.441Z,8.32
2023-03-20T03:02:12.781Z,7.97
2023-03-20T03:04:51.716Z,7.60
2023-03-20T03:07:21.423Z,8.38
2023-03-20T03:09:57.189Z,8.30
2023-03-20T03:12:29.522Z,7.68
2023-03-20T03:15:04.684Z,8.55
2023-03-20T03:17:36.181Z,8.38
2023-03-20T03:20:07.775Z,8.93
2023-03-20T03:22:36.172Z,8.52
2023-03-20T03:25:02.677Z,8.73
2023-03-20T03:27:36.508Z,9.07
2023-03-20T03:30:11.590Z,8.75
2023-03-20T03:33:03.482Z,8.57
2023-03-20T03:35:31.048Z,8.23
2023-03-20T03:38:08.468Z,8.70
2023-03-20T03:40:46.355Z,8.90
2023-03-20T03:43:16.740Z,8.43
2023-03-20T03:45:57.579Z,9.43
2023-03-20T03:48:32.340Z,9.20
2023-03-20T03:51:08.520Z,9.38
2023-03-20T03:53:48.906Z,9.02
2023-03-20T03:56:21.950Z,9.00
2023-03-20T03:58:52.446Z,10.13
2023-03-20T04:01:22.213Z,10.18
2023-03-20T04:03:56.136Z,9.60
2023-03-20T04:06:22.677Z,10.30
2023-03-20T04:08:51.738Z,9.35
2023-03-20T04:11:24.290Z,10.50
2023-03-20T04:13:52.315Z,9.27
2023-03-20T04:16:21.746Z,10.00
2023-03-20T04:18:48.404Z,9.48
2023-03-20T04:21:16.107Z,10.13
2023-03-20T04:23:43.881Z,10.10
2023-03-20T04:26:10.311Z,10.43
2023-03-20T04:28:37.589Z,9.27
2023-03-20T04:31:38.126Z,11.02
2023-03-20T04:34:12.094Z,11.82
2023-03-20T04:36:58.483Z,13.02
2023-03-20T04:39:36.629Z,13.70
2023-03-20T04:42:04.602Z,14.05
2023-03-20T04:44:31.499Z,14.70
2023-03-20T04:46:58.296Z,13.55
2023-03-20T04:49:24.891Z,15.05
2023-03-20T04:51:51.341Z,14.75
2023-03-20T04:54:27.718Z,13.68
2023-03-20T04:56:54.164Z,14.60
2023-03-20T04:59:20.777Z,14.48
2023-03-20T05:01:47.244Z,15.65
2023-03-20T05:04:13.802Z,15.15
2023-03-20T05:06:40.395Z,15.13
2023-03-20T05:09:06.871Z,14.90
2023-03-20T05:11:35.399Z,15.35
2023-03-20T05:14:01.982Z,15.50
2023-03-20T05:16:28.466Z,14.20
2023-03-20T05:19:12.580Z,14.35
2023-03-20T05:21:52.706Z,14.77
2023-03-20T05:24:38.481Z,13.52
2023-03-20T05:27:23.393Z,13.00
2023-03-20T05:30:02.231Z,12.30
2023-03-20T05:32:54.865Z,10.52
2023-03-20T05:35:36.638Z,10.77
2023-03-20T05:38:22.680Z,11.18
2023-03-20T05:41:02.071Z,11.10
2023-03-20T05:43:42.620Z,10.18
2023-03-20T05:46:27.509Z,10.68
2023-03-20T05:49:12.719Z,10.75
2023-03-20T05:52:11.598Z,10.65
2023-03-20T05:54:47.405Z,10.02
2023-03-20T05:57:36.943Z,9.35
2023-03-20T06:00:35.859Z,8.52
2023-03-20T06:03:25.342Z,8.98
2023-03-20T06:06:04.145Z,8.93
2023-03-20T06:08:30.707Z,9.65
2023-03-20T06:10:59.781Z,9.43
2023-03-20T06:13:26.395Z,9.20
2023-03-20T06:15:52.958Z,9.68
2023-03-20T06:18:19.775Z,9.90
2023-03-20T06:20:46.279Z,9.15
2023-03-20T06:23:13.696Z,9.43
2023-03-20T06:25:40.310Z,9.38
2023-03-20T06:28:08.141Z,8.70
2023-03-20T06:30:34.775Z,9.20
2023-03-20T06:33:01.459Z,7.95
2023-03-20T06:35:36.971Z,8.25
2023-03-20T06:38:03.986Z,7.82
2023-03-20T06:40:30.557Z,8.38
2023-03-20T06:42:57.531Z,7.82
2023-03-20T06:45:31.787Z,7.30
2023-03-20T06:48:00.876Z,7.25
2023-03-20T06:50:27.876Z,8.00
2023-03-20T06:52:55.477Z,7.22
2023-03-20T06:55:43.503Z,6.38
2023-03-20T06:58:10.233Z,7.10
2023-03-20T07:00:37.597Z,8.10
2023-03-20T07:03:05.946Z,7.63
2023-03-20T07:05:32.669Z,7.78
2023-03-20T07:08:01.040Z,7.97
2023-03-20T07:10:28.465Z,7.38
2023-03-20T07:12:55.765Z,7.93
2023-03-20T07:15:22.859Z,8.93
2023-03-20T07:17:49.819Z,9.10
2023-03-20T07:20:17.301Z,8.70
2023-03-20T07:22:43.986Z,9.65
2023-03-20T07:25:15.886Z,9.68
2023-03-20T07:27:46.529Z,9.90
2023-03-20T07:30:13.164Z,10.77
2023-03-20T07:32:39.757Z,9.82
2023-03-20T07:35:07.157Z,10.07
2023-03-20T07:37:33.825Z,10.25
2023-03-20T07:40:02.496Z,10.05
2023-03-20T07:42:35.080Z,9.55
2023-03-20T07:45:14.050Z,9.90
2023-03-20T07:47:45.528Z,9.93
2023-03-20T07:50:12.045Z,10.05
2023-03-20T07:52:38.474Z,10.45
2023-03-20T07:55:05.935Z,9.77
2023-03-20T07:57:32.372Z,10.65
2023-03-20T07:59:58.874Z,9.32
2023-03-20T08:02:25.840Z,10.15
2023-03-20T08:04:52.191Z,9.98
2023-03-20T08:07:18.903Z,9.60
2023-03-20T08:09:45.543Z,9.43
2023-03-20T08:12:11.912Z,9.00
2023-03-20T08:14:39.744Z,7.90
2023-03-20T08:17:14.865Z,7.70
2023-03-20T08:19:42.388Z,7.65
2023-03-20T08:22:08.790Z,7.25
2023-03-20T08:24:35.445Z,7.45
2023-03-20T08:27:01.845Z,7.10
2023-03-20T08:29:28.605Z,6.32
2023-03-20T08:31:55.920Z,6.53
2023-03-20T08:34:24.127Z,6.38
2023-03-20T08:36:54.323Z,6.55
2023-03-20T08:39:21.776Z,6.28
2023-03-20T08:41:48.183Z,6.43
2023-03-20T08:44:14.836Z,6.05
2023-03-20T08:46:43.610Z,5.57
2023-03-20T08:49:10.069Z,5.45
2023-03-20T08:51:36.508Z,5.80
2023-03-20T08:54:03.029Z,5.68
2023-03-20T08:56:29.480Z,5.40
2023-03-20T08:58:56.181Z,4.65
2023-03-20T09:01:23.075Z,5.18
2023-03-20T09:03:49.656Z,4.70
2023-03-20T09:06:16.163Z,4.57
2023-03-20T09:08:42.520Z,4.72
2023-03-20T09:11:09.094Z,4.10
2023-03-20T09:13:35.900Z,4.28
2023-03-20T09:16:03.509Z,4.60
2023-03-20T09:18:30.113Z,4.55
2023-03-20T09:20:56.688Z,4.50
2023-03-20T09:23:23.754Z,4.25
2023-03-20T09:25:50.186Z,4.28
2023-03-20T09:28:16.611Z,4.28
2023-03-20T09:30:43.714Z,4.40
2023-03-20T09:33:11.295Z,4.13
2023-03-20T09:35:38.585Z,4.07
2023-03-20T09:38:05.124Z,4.05
2023-03-20T09:40:48.215Z,3.58
2023-03-20T09:43:29.967Z,4.00
2023-03-20T09:46:34.107Z,3.83
2023-03-20T09:49:25.446Z,3.40
2023-03-20T09:51:56.355Z,3.65
2023-03-20T09:54:40.445Z,3.83
2023-03-20T09:57:24.167Z,3.42
2023-03-20T09:59:57.181Z,3.38
2023-03-20T10:02:44.847Z,3.35
2023-03-20T10:05:39.812Z,3.85
2023-03-20T10:08:13.376Z,3.95
2023-03-20T10:10:47.318Z,4.18
2023-03-20T10:13:38.757Z,3.58
2023-03-20T10:16:46.894Z,3.53
2023-03-20T10:19:24.184Z,4.15
2023-03-20T10:22:11.756Z,3.67
2023-03-20T10:25:07.461Z,3.45
2023-03-20T10:27:44.342Z,3.80
2023-03-20T10:30:33.221Z,4.38
2023-03-20T10:33:32.481Z,4.20
2023-03-20T10:36:12.845Z,3.33
2023-03-20T10:38:49.285Z,3.60
2023-03-20T10:41:19.616Z,3.40
2023-03-20T10:43:48.513Z,3.58
2023-03-20T10:46:30.188Z,2.80
2023-03-20T10:48:59.682Z,2.95
2023-03-20T10:51:48.289Z,3.05
2023-03-20T10:54:26.669Z,2.83
2023-03-20T10:56:56.511Z,3.05
2023-03-20T10:59:44.907Z,3.20
2023-03-20T11:02:13.171Z,2.97
2023-03-20T11:04:39.846Z,2.70
2023-03-20T11:07:08.948Z,3.28
2023-03-20T11:09:35.447Z,2.97
2023-03-20T11:12:02.934Z,2.67
2023-03-20T11:14:35.979Z,2.65
2023-03-20T11:17:04.233Z,2.63
2023-03-20T11:19:36.635Z,2.30
2023-03-20T11:22:21.319Z,2.22
2023-03-20T11:24:54.531Z,2.40
2023-03-20T11:27:27.037Z,2.35
2023-03-20T11:29:55.542Z,2.20
2023-03-20T11:32:30.758Z,2.58
2023-03-20T11:35:09.010Z,2.65
2023-03-20T11:37:36.251Z,2.40
2023-03-20T11:40:21.581Z,2.00
2023-03-20T11:43:21.878Z,2.22
2023-03-20T11:45:56.774Z,2.10
2023-03-20T11:48:26.599Z,2.40
2023-03-20T11:51:02.581Z,2.60
2023-03-20T11:53:38.115Z,2.47
2023-03-20T11:56:15.200Z,2.28
2023-03-20T11:59:11.781Z,2.50
2023-03-20T12:01:46.828Z,2.35
2023-03-20T12:04:17.251Z,2.55
2023-03-20T12:06:53.025Z,2.30
2023-03-20T12:09:27.832Z,2.33
2023-03-20T12:12:09.195Z,2.78
2023-03-20T12:14:57.023Z,2.65
2023-03-20T12:17:57.298Z,3.10
2023-03-20T12:20:36.760Z,2.88
2023-03-20T12:23:11.950Z,3.40
2023-03-20T12:25:47.295Z,3.08
2023-03-20T12:28:38.558Z,3.63
2023-03-20T12:31:16.766Z,3.65
2023-03-20T12:33:54.337Z,3.55
2023-03-20T12:36:32.446Z,3.67
2023-03-20T12:39:01.409Z,3.85
2023-03-20T12:41:56.911Z,3.88
2023-03-20T12:44:35.106Z,3.55
2023-03-20T12:47:35.066Z,3.40
2023-03-20T12:50:01.641Z,3.67
2023-03-20T12:52:51.969Z,3.42
2023-03-20T12:55:29.505Z,3.17
2023-03-20T12:58:23.514Z,3.35
2023-03-20T13:03:31.081Z,3.78
2023-03-20T13:06:07.812Z,3.53
2023-03-20T13:08:37.355Z,3.13
2023-03-20T13:11:14.098Z,3.33
2023-03-20T13:13:52.172Z,3.78
2023-03-20T13:16:45.099Z,3.45
2023-03-20T13:19:24.864Z,3.08
2023-03-20T13:22:13.147Z,3.20
2023-03-20T13:25:04.400Z,3.30
2023-03-20T13:27:45.260Z,3.80
2023-03-20T13:30:34.430Z,3.47
2023-03-20T13:33:31.810Z,3.42
2023-03-20T13:36:24.270Z,3.03
2023-03-20T13:38:58.897Z,3.42
2023-03-20T13:41:26.939Z,3.28
2023-03-20T13:43:58.970Z,2.88
2023-03-20T13:46:32.105Z,2.95
2023-03-20T13:49:05.832Z,2.72
2023-03-20T13:51:54.796Z,3.15
2023-03-20T13:55:00.942Z,2.85
2023-03-20T13:57:52.588Z,2.80
2023-03-20T14:00:32.977Z,2.63
2023-03-20T14:03:20.939Z,3.45
2023-03-20T14:05:47.815Z,2.90
2023-03-20T14:08:38.358Z,2.88
2023-03-20T14:11:10.735Z,3.05
2023-03-20T14:13:37.827Z,2.67
2023-03-20T14:16:08.360Z,2.55
2023-03-20T14:18:36.331Z,3.05
2023-03-20T14:21:10.283Z,3.47
2023-03-20T14:23:39.424Z,3.33
2023-03-20T14:26:19.032Z,3.28
2023-03-20T14:29:12.088Z,2.63
2023-03-20T14:31:41.750Z,3.23
2023-03-20T14:34:16.438Z,2.95
2023-03-20T14:37:03.153Z,3.53
2023-03-20T14:39:54.063Z,3.05
2023-03-20T14:42:26.466Z,3.10
2023-03-20T14:45:28.470Z,3.42
2023-03-20T14:47:54.831Z,2.92
2023-03-20T14:50:31.595Z,3.28
2023-03-20T14:53:19.741Z,3.40
2023-03-20T14:55:55.555Z,3.20
2023-03-20T14:58:54.692Z,3.85
2023-03-20T15:01:21.623Z,3.45
2023-03-20T15:03:52.678Z,3.95
2023-03-20T15:06:22.036Z,4.20
2023-03-20T15:09:10.493Z,3.70
2023-03-20T15:11:37.840Z,3.70
2023-03-20T15:14:09.915Z,3.78
2023-03-20T15:16:38.064Z,3.15
2023-03-20T15:19:17.207Z,4.05
2023-03-20T15:21:45.573Z,3.42
2023-03-20T15:24:20.175Z,3.78
2023-03-20T15:26:46.774Z,3.78
2023-03-20T15:29:18.870Z,3.92
2023-03-20T15:31:46.047Z,3.95
2023-03-20T15:34:23.054Z,4.20
2023-03-20T15:36:50.611Z,4.00
2023-03-20T15:39:30.470Z,4.03
2023-03-20T15:42:03.690Z,3.53
2023-03-20T15:44:38.254Z,3.60
2023-03-20T15:47:20.317Z,3.78
2023-03-20T15:49:54.138Z,4.18
2023-03-20T15:52:36.456Z,4.13
2023-03-20T15:55:07.233Z,4.20
2023-03-20T15:57:36.414Z,4.38
2023-03-20T16:00:10.011Z,3.25
2023-03-20T16:02:37.313Z,3.25
2023-03-20T16:05:04.630Z,4.00
2023-03-20T16:07:33.175Z,3.92
2023-03-20T16:10:00.407Z,4.55
2023-03-20T16:12:27.586Z,3.60
2023-03-20T16:14:55.648Z,3.88
2023-03-20T16:17:25.013Z,4.53
2023-03-20T16:19:51.880Z,3.78
2023-03-20T16:22:32.276Z,3.88
2023-03-20T16:25:01.600Z,4.70
2023-03-20T16:27:32.320Z,5.00
2023-03-20T16:29:59.227Z,3.75
2023-03-20T16:32:37.806Z,4.72
2023-03-20T16:35:15.296Z,4.70
2023-03-20T16:37:48.425Z,6.38
2023-03-20T16:40:28.557Z,7.00
2023-03-20T16:42:57.104Z,6.15
2023-03-20T16:45:25.619Z,5.30
2023-03-20T16:48:11.937Z,4.45
2023-03-20T16:50:40.921Z,4.00
2023-03-20T16:53:14.012Z,3.55
2023-03-20T16:55:49.585Z,3.88
2023-03-20T16:58:29.285Z,4.57
2023-03-20T17:01:05.368Z,4.53
2023-03-20T17:03:44.397Z,5.57
2023-03-20T17:06:21.299Z,5.30
2023-03-20T17:08:53.652Z,4.53
2023-03-20T17:11:31.097Z,3.90
2023-03-20T17:13:57.494Z,4.20
2023-03-20T17:16:24.794Z,3.72
2023-03-20T17:19:02.696Z,3.85
2023-03-20T17:21:29.793Z,3.92
2023-03-20T17:23:56.234Z,3.35
2023-03-20T17:26:23.302Z,3.70
2023-03-20T17:28:50.256Z,4.00
2023-03-20T17:31:18.046Z,4.07
2023-03-20T17:33:45.925Z,3.42
2023-03-20T17:36:18.328Z,3.92
2023-03-20T17:38:44.772Z,3.47
2023-03-20T17:41:16.442Z,3.25
2023-03-20T17:43:43.254Z,3.50
2023-03-20T17:46:17.867Z,4.15
2023-03-20T17:48:45.228Z,3.33
2023-03-20T17:51:12.708Z,3.40
2023-03-20T17:53:39.411Z,3.50
2023-03-20T17:56:12.807Z,3.75
2023-03-20T18:01:06.923Z,3.58
2023-03-20T18:03:33.402Z,4.07
2023-03-20T18:06:00.119Z,3.53
2023-03-20T18:08:26.593Z,3.33
2023-03-20T18:10:53.488Z,3.03
2023-03-20T18:13:21.844Z,3.90
2023-03-20T18:15:49.714Z,4.07
2023-03-20T18:18:17.052Z,3.83
2023-03-20T18:20:45.413Z,4.10
2023-03-20T18:23:12.711Z,3.72
2023-03-20T18:25:39.421Z,3.78
2023-03-20T18:28:08.013Z,3.88
2023-03-20T18:30:37.586Z,4.72
2023-03-20T18:33:05.083Z,5.00
2023-03-20T18:35:31.984Z,4.68
2023-03-20T18:37:59.395Z,4.35
2023-03-20T18:40:31.152Z,5.28
2023-03-20T18:42:58.322Z,4.80
2023-03-20T18:45:27.067Z,4.10
2023-03-20T18:47:54.419Z,3.92
2023-03-20T18:50:37.600Z,4.85
2023-03-20T18:53:06.213Z,4.35
2023-03-20T18:55:34.061Z,4.43
2023-03-20T18:58:03.640Z,3.78
2023-03-20T19:00:40.112Z,4.57
2023-03-20T19:03:08.305Z,4.20
2023-03-20T19:05:36.247Z,4.18
2023-03-20T19:08:03.337Z,4.40
2023-03-20T19:10:34.311Z,4.47
2023-03-20T19:13:01.863Z,3.65
2023-03-20T19:15:35.217Z,4.35
2023-03-20T19:20:47.870Z,4.82
2023-03-20T19:23:16.622Z,4.90
2023-03-20T19:25:45.218Z,4.00
2023-03-20T19:28:21.710Z,5.38
2023-03-20T19:30:50.663Z,4.97
2023-03-20T19:33:17.139Z,5.13
2023-03-20T19:36:11.733Z,6.65
2023-03-20T19:38:31.090Z,5.68
2023-03-20T19:40:58.009Z,5.35
2023-03-20T19:43:24.633Z,4.13
2023-03-20T19:45:57.264Z,4.00
2023-03-20T19:48:50.769Z,3.58
2023-03-20T19:51:19.476Z,4.30
2023-03-20T19:53:47.157Z,3.65
2023-03-20T19:56:14.830Z,4.28
2023-03-20T19:58:41.908Z,5.03
2023-03-20T20:01:15.764Z,4.38
2023-03-20T20:03:42.736Z,3.83
2023-03-20T20:06:09.759Z,3.75
2023-03-20T20:08:49.145Z,4.38
2023-03-20T20:11:17.981Z,4.00
2023-03-20T20:16:32.220Z,5.70
2023-03-20T20:18:59.034Z,5.72
2023-03-20T20:22:13.461Z,5.80
2023-03-20T20:24:12.273Z,5.38
2023-03-20T20:26:45.225Z,4.70
2023-03-20T20:29:15.805Z,4.97
2023-03-20T20:31:43.894Z,4.55
2023-03-20T20:39:47.942Z,3.95
2023-03-20T20:42:14.989Z,3.97
2023-03-20T20:44:41.463Z,3.83
2023-03-20T20:47:08.172Z,4.72
2023-03-20T20:49:34.806Z,3.90
2023-03-20T20:52:01.626Z,4.20
2023-03-20T20:54:28.846Z,3.90
2023-03-20T20:56:55.510Z,4.47
2023-03-20T20:59:22.420Z,4.57
2023-03-20T21:01:49.262Z,4.20
2023-03-20T21:04:15.721Z,4.35
2023-03-20T21:09:28.484Z,4.90
2023-03-20T21:11:55.014Z,4.55
2023-03-20T21:14:21.894Z,5.18
2023-03-20T21:16:48.313Z,4.82
2023-03-20T21:19:14.715Z,5.43
2023-03-20T21:21:41.630Z,5.45
2023-03-20T21:24:30.522Z,6.00
2023-03-20T21:26:58.843Z,5.53
2023-03-20T21:29:25.627Z,6.13
2023-03-20T21:31:52.371Z,5.68
2023-03-20T21:34:19.178Z,6.30
2023-03-20T21:36:49.002Z,6.63
2023-03-20T21:39:16.923Z,6.22
2023-03-20T21:41:44.026Z,6.10
2023-03-20T21:44:16.730Z,6.47
2023-03-20T21:50:25.823Z,6.35
2023-03-20T21:56:05.770Z,6.78
2023-03-20T22:03:51.996Z,7.10
2023-03-20T22:07:12.828Z,6.82
2023-03-20T22:26:33.975Z,6.65
2023-03-20T22:45:11.777Z,6.63
2023-03-20T22:47:38.456Z,6.28
2023-03-20T22:50:06.220Z,6.78
2023-03-20T22:52:47.773Z,6.95
2023-03-20T22:55:16.749Z,7.32
2023-03-20T22:57:52.993Z,6.15
2023-03-20T23:00:26.973Z,7.30
2023-03-20T23:02:57.318Z,6.72
2023-03-20T23:05:30.017Z,7.07
2023-03-20T23:07:56.506Z,6.35
2023-03-20T23:10:23.763Z,7.50
2023-03-20T23:12:50.179Z,6.90
2023-03-20T23:15:16.659Z,6.72
2023-03-20T23:17:43.027Z,5.65
2023-03-20T23:20:16.709Z,7.25
2023-03-20T23:22:45.312Z,7.00
2023-03-20T23:25:27.177Z,6.70
2023-03-20T23:27:58.780Z,7.35
2023-03-20T23:30:33.934Z,7.93
2023-03-20T23:33:05.574Z,6.47
2023-03-20T23:35:32.416Z,6.57
2023-03-20T23:37:58.861Z,6.45
2023-03-20T23:40:25.559Z,6.90
2023-03-20T23:42:51.984Z,6.88
2023-03-20T23:45:20.812Z,7.68
2023-03-20T23:47:48.108Z,6.97
2023-03-20T23:50:26.510Z,6.88
2023-03-20T23:53:03.546Z,6.35
2023-03-20T23:55:42.549Z,6.63
2023-03-20T23:58:09.366Z,6.50
